Terminal Aerodrome Forecast
Issued by NWS Bismarck, ND

Home | Current Version | Previous Version | Text Only | Print | Product List | Glossary Off
Versions: 1 2 3 4 5 6 7 8 9 10 11 12

058
FTUS43 KBIS 281723
TAFBIS
TAF
KBIS 281723Z 2818/2918 04009KT P6SM SKC
     FM290200 06005KT P6SM FEW250
     FM291500 19004KT P6SM SCT250=

USA.gov is the U.S. government's official web portal to all federal, state and local government web resources and services.